Terminal Aerodrome Forecast
Issued by NWS Cleveland, OH

Home | Current Version | Previous Version | Text Only | Print | Product List | Glossary On
Versions: 1 2 3 4 5 6 7 8 9 10 11 12 13 14 15 16 17 18 19
000
FTUS41 KCLE 011738
TAFTOL
TAF
KTOL 011738Z 0118/0218 23020G35KT P6SM OVC025
     FM012000 25020G38KT P6SM VCSH OVC015
     FM020400 28020G30KT P6SM BKN035
     FM021300 28014G24KT P6SM BKN050=

USA.gov is the U.S. government's official web portal to all federal, state and local government web resources and services.